Time;durP1;ratioP1;P1;durP2;ratioP2;P2;SDS_P1;SDS_P2;PMS_P1;PMS_P2;Temp;Humidity;BMP_temperature;BMP_pressure;BME280_temperature;BME280_humidity;BME280_pressure;Samples;Min_cycle;Max_cycle;Signal;HPM_P1;HPM_P2
2021/09/02 00:02:09;;;;;;;40.95;29.20;;;;;;;17.29;100.00;99934.13;1721409;81;21066;-84
2021/09/02 00:04:36;;;;;;;41.70;29.05;;;;;;;17.26;100.00;99926.61;1727455;82;21086;-85
2021/09/02 00:07:04;;;;;;;40.58;27.90;;;;;;;17.24;100.00;99923.33;1723333;81;21208;-83
2021/09/02 00:09:31;;;;;;;36.95;27.95;;;;;;;17.26;100.00;99923.98;1715431;82;21639;-81
2021/09/02 00:12:01;;;;;;;40.00;28.40;;;;;;;17.31;100.00;99925.58;1719800;81;21042;-85
2021/09/02 00:14:29;;;;;;;37.67;26.30;;;;;;;17.34;100.00;99916.50;1723222;81;20962;-81
2021/09/02 00:16:56;;;;;;;32.75;24.47;;;;;;;17.40;100.00;99920.25;1726745;81;21156;-84
2021/09/02 00:19:23;;;;;;;33.38;25.43;;;;;;;17.41;100.00;99916.11;1713920;82;21175;-84
2021/09/02 00:21:50;;;;;;;35.78;26.48;;;;;;;17.44;100.00;99916.25;1710489;81;21212;-80
2021/09/02 00:24:17;;;;;;;34.15;24.82;;;;;;;17.44;100.00;99912.30;1715576;81;21082;-85
2021/09/02 00:26:44;;;;;;;31.65;26.10;;;;;;;17.41;100.00;99911.36;1710201;82;21007;-81
2021/09/02 00:29:11;;;;;;;34.03;25.68;;;;;;;17.39;100.00;99910.71;1718893;82;21045;-83
2021/09/02 00:31:40;;;;;;;33.35;26.42;;;;;;;17.37;100.00;99911.38;1722748;81;21070;-85
2021/09/02 00:34:07;;;;;;;37.55;27.93;;;;;;;17.34;100.00;99913.39;1708814;82;21073;-83
2021/09/02 00:36:34;;;;;;;35.33;27.65;;;;;;;17.31;100.00;99910.27;1718371;82;21062;-82
2021/09/02 00:39:02;;;;;;;37.67;27.82;;;;;;;17.28;100.00;99921.97;1702967;82;21121;-83
2021/09/02 00:41:29;;;;;;;34.43;27.30;;;;;;;17.32;100.00;99919.32;1651795;85;21094;-83
2021/09/02 00:43:57;;;;;;;33.63;26.95;;;;;;;17.43;100.00;99929.09;1679567;84;21925;-84
2021/09/02 00:46:24;;;;;;;31.70;24.77;;;;;;;17.45;100.00;99934.52;1671604;84;21149;-81
2021/09/02 00:48:53;;;;;;;33.28;25.92;;;;;;;17.40;100.00;99935.52;1715900;82;22076;-84
2021/09/02 00:51:22;;;;;;;38.42;26.57;;;;;;;17.34;100.00;99934.44;1728036;82;21272;-82
2021/09/02 00:53:52;;;;;;;34.33;24.12;;;;;;;17.26;100.00;99929.23;1713798;82;21140;-85
2021/09/02 00:56:20;;;;;;;38.15;26.40;;;;;;;17.16;100.00;99916.30;1689437;82;21115;-82
2021/09/02 00:58:48;;;;;;;33.38;25.37;;;;;;;17.12;100.00;99916.82;1713231;82;21089;-83
2021/09/02 01:01:17;;;;;;;42.13;26.95;;;;;;;17.08;100.00;99903.72;1717693;82;21070;-82
2021/09/02 01:03:46;;;;;;;36.38;26.37;;;;;;;17.07;100.00;99906.02;1700689;82;21065;-81
2021/09/02 01:06:16;;;;;;;40.78;26.87;;;;;;;17.08;100.00;99910.29;1726055;82;21762;-84
2021/09/02 01:08:44;;;;;;;40.30;25.85;;;;;;;17.06;100.00;99905.69;1684141;82;21119;-81
2021/09/02 01:11:13;;;;;;;38.88;27.42;;;;;;;16.99;100.00;99900.30;1717705;80;21172;-83
2021/09/02 01:13:40;;;;;;;40.20;27.20;;;;;;;16.92;100.00;99893.59;1770699;80;21668;-82
2021/09/02 01:16:07;;;;;;;35.88;27.05;;;;;;;16.93;100.00;99899.22;1703597;82;21357;-86
2021/09/02 01:18:33;;;;;;;35.83;27.27;;;;;;;16.95;100.00;99894.58;1703018;83;21142;-82
2021/09/02 01:21:00;;;;;;;34.80;26.60;;;;;;;16.98;100.00;99896.06;1698222;83;21560;-83
2021/09/02 01:23:27;;;;;;;34.03;25.52;;;;;;;17.00;100.00;99894.89;1675973;83;21861;-84
2021/09/02 01:25:54;;;;;;;28.27;24.02;;;;;;;16.94;100.00;99897.39;1689288;83;21089;-85
2021/09/02 01:28:21;;;;;;;33.80;25.08;;;;;;;16.80;100.00;99889.23;1688787;83;21150;-83
2021/09/02 01:30:48;;;;;;;33.42;25.40;;;;;;;16.75;100.00;99889.43;1716017;82;21196;-83
2021/09/02 01:33:17;;;;;;;33.95;24.70;;;;;;;16.75;100.00;99881.55;1682355;83;22387;-85
2021/09/02 01:35:45;;;;;;;30.90;24.40;;;;;;;16.76;100.00;99880.55;1697474;82;21063;-83
2021/09/02 01:38:12;;;;;;;33.95;25.25;;;;;;;16.72;100.00;99881.41;1665335;83;21568;-81
2021/09/02 01:40:46;;;;;;;37.88;25.75;;;;;;;16.68;100.00;99876.98;1664755;84;21541;-84
2021/09/02 01:43:16;;;;;;;31.70;24.23;;;;;;;16.68;100.00;99879.62;1666869;83;21695;-84
2021/09/02 01:45:44;;;;;;;30.65;26.55;;;;;;;16.68;100.00;99874.84;1637895;85;21280;-85
2021/09/02 01:48:11;;;;;;;46.25;25.65;;;;;;;16.69;100.00;99871.22;1650368;85;21506;-81
2021/09/02 01:50:40;;;;;;;34.75;26.73;;;;;;;16.76;100.00;99867.41;1668411;83;21533;-84
2021/09/02 01:53:11;;;;;;;32.35;25.70;;;;;;;16.82;100.00;99867.55;1679947;84;21121;-83
2021/09/02 01:55:40;;;;;;;38.33;26.48;;;;;;;16.89;100.00;99861.07;1690430;83;21109;-83
2021/09/02 01:58:07;;;;;;;36.08;25.15;;;;;;;16.94;100.00;99860.10;1692457;83;21422;-79
2021/09/02 02:00:35;;;;;;;27.95;22.87;;;;;;;16.95;100.00;99857.77;1662386;84;21493;-84
2021/09/02 02:03:02;;;;;;;36.85;23.40;;;;;;;16.93;100.00;99857.14;1642530;85;21579;-85
2021/09/02 02:05:29;;;;;;;32.05;23.50;;;;;;;16.92;100.00;99851.53;1655711;85;21137;-85
2021/09/02 02:07:56;;;;;;;31.87;22.85;;;;;;;16.89;100.00;99855.81;1665469;84;21141;-83
2021/09/02 02:10:28;;;;;;;29.65;22.67;;;;;;;16.87;100.00;99863.88;1662491;84;21085;-82
2021/09/02 02:12:56;;;;;;;27.10;21.05;;;;;;;16.84;100.00;99858.16;1682730;84;21112;-83
2021/09/02 02:15:24;;;;;;;29.12;21.97;;;;;;;16.80;100.00;99856.37;1687111;83;21356;-84
2021/09/02 02:17:53;;;;;;;28.27;21.93;;;;;;;16.79;100.00;99853.42;1681595;84;21192;-83
2021/09/02 02:20:20;;;;;;;27.32;22.30;;;;;;;16.72;100.00;99850.66;1659122;83;21049;-83
2021/09/02 02:22:47;;;;;;;36.60;24.70;;;;;;;16.65;100.00;99845.78;1687627;83;21082;-83
2021/09/02 02:25:15;;;;;;;29.23;24.60;;;;;;;16.61;100.00;99840.56;1665697;84;21058;-82
2021/09/02 02:27:43;;;;;;;24.77;22.20;;;;;;;16.60;100.00;99843.34;1688416;83;21063;-81
2021/09/02 02:30:15;;;;;;;30.75;22.60;;;;;;;16.54;100.00;99847.51;1674901;84;21014;-84
2021/09/02 02:32:42;;;;;;;27.40;22.45;;;;;;;16.46;100.00;99847.05;1675698;84;21576;-81
2021/09/02 02:35:11;;;;;;;27.20;21.37;;;;;;;16.35;100.00;99842.16;1682775;84;21830;-82
2021/09/02 02:37:38;;;;;;;26.60;21.17;;;;;;;16.22;100.00;99850.12;1653837;84;21144;-84
2021/09/02 02:40:07;;;;;;;28.62;21.15;;;;;;;16.15;100.00;99852.27;1639410;84;21117;-83
2021/09/02 02:42:34;;;;;;;27.48;21.87;;;;;;;16.05;100.00;99850.69;1657945;84;21083;-83
2021/09/02 02:45:01;;;;;;;28.47;24.67;;;;;;;16.05;100.00;99853.31;1667020;84;21090;-82
2021/09/02 02:47:28;;;;;;;28.70;24.32;;;;;;;16.06;100.00;99857.55;1682830;84;21129;-82
2021/09/02 02:49:55;;;;;;;32.53;25.57;;;;;;;16.11;100.00;99866.23;1679358;84;21043;-82
2021/09/02 02:52:21;;;;;;;32.88;24.82;;;;;;;16.14;100.00;99866.42;1677855;84;21157;-83
2021/09/02 02:54:48;;;;;;;39.85;26.97;;;;;;;16.15;100.00;99866.23;1681522;84;21692;-84
2021/09/02 02:57:15;;;;;;;68.65;28.00;;;;;;;16.12;100.00;99871.02;1662764;83;21139;-83
2021/09/02 02:59:43;;;;;;;42.88;26.75;;;;;;;16.14;100.00;99869.05;1655413;85;21176;-84
2021/09/02 03:02:10;;;;;;;46.70;28.10;;;;;;;16.20;100.00;99858.66;1650756;83;21062;-83
2021/09/02 03:04:37;;;;;;;47.53;29.82;;;;;;;16.27;100.00;99856.65;1656802;84;21082;-82
2021/09/02 03:07:05;;;;;;;60.50;32.45;;;;;;;16.37;100.00;99852.02;1673998;83;21623;-85
2021/09/02 03:09:31;;;;;;;67.60;38.73;;;;;;;16.47;100.00;99852.62;1674634;83;21078;-84
2021/09/02 03:11:58;;;;;;;54.98;37.88;;;;;;;16.52;100.00;99857.37;1677378;83;21233;-84
2021/09/02 03:14:26;;;;;;;54.38;35.23;;;;;;;16.59;100.00;99857.00;1682138;82;21031;-83
2021/09/02 03:16:54;;;;;;;51.28;33.08;;;;;;;16.67;100.00;99867.94;1683075;84;21121;-81
2021/09/02 03:19:21;;;;;;;117.90;37.05;;;;;;;16.67;100.00;99864.00;1657481;84;21155;-84
2021/09/02 03:21:48;;;;;;;212.42;38.53;;;;;;;16.63;100.00;99862.72;1662239;83;21257;-80
2021/09/02 03:24:15;;;;;;;116.67;32.05;;;;;;;16.56;100.00;99861.27;1721706;82;21065;-81
2021/09/02 03:26:44;;;;;;;69.20;33.28;;;;;;;16.53;100.00;99864.27;1722515;80;21022;-85
2021/09/02 03:29:11;;;;;;;52.45;36.48;;;;;;;16.48;100.00;99854.27;1713256;82;21034;-85
2021/09/02 03:31:37;;;;;;;1999.90;999.90;;;;;;;16.48;100.00;99854.75;1662245;83;21671;-80
2021/09/02 03:34:04;;;;;;;794.73;699.23;;;;;;;16.44;100.00;99850.84;1663647;85;21050;-81
2021/09/02 03:36:31;;;;;;;893.92;704.60;;;;;;;16.38;100.00;99849.72;1677972;84;21103;-83
2021/09/02 03:39:00;;;;;;;624.60;522.85;;;;;;;16.31;100.00;99855.34;1719301;82;21002;-86
2021/09/02 03:41:27;;;;;;;238.77;212.35;;;;;;;16.24;100.00;99852.56;1720231;82;21010;-83
2021/09/02 03:43:53;;;;;;;395.27;319.32;;;;;;;16.18;100.00;99853.25;1724296;82;21083;-86
2021/09/02 03:46:21;;;;;;;449.32;356.30;;;;;;;16.12;100.00;99850.81;1691703;83;21093;-79
2021/09/02 03:48:48;;;;;;;522.73;409.85;;;;;;;16.08;100.00;99847.70;1696071;83;21200;-83
2021/09/02 03:51:15;;;;;;;163.35;82.22;;;;;;;16.05;100.00;99849.37;1683518;83;20998;-82
2021/09/02 03:53:42;;;;;;;72.45;53.30;;;;;;;16.02;100.00;99851.02;1667008;84;21121;-83
2021/09/02 03:56:09;;;;;;;235.25;162.85;;;;;;;15.97;100.00;99849.88;1656647;83;21038;-81
2021/09/02 03:58:36;;;;;;;94.65;65.52;;;;;;;15.95;100.00;99857.10;1696650;82;21031;-82
2021/09/02 04:01:03;;;;;;;72.12;52.13;;;;;;;15.92;100.00;99857.78;1717657;82;21077;-81
2021/09/02 04:03:30;;;;;;;68.20;46.60;;;;;;;15.87;100.00;99848.77;1716168;81;21597;-83
2021/09/02 04:05:57;;;;;;;52.55;39.08;;;;;;;15.86;100.00;99845.34;1715786;82;21505;-84
2021/09/02 04:08:24;;;;;;;44.55;35.13;;;;;;;15.88;100.00;99844.66;1655559;84;21046;-83
2021/09/02 04:10:51;;;;;;;41.45;32.10;;;;;;;15.88;100.00;99844.66;1705108;80;21252;-85
2021/09/02 04:13:18;;;;;;;52.75;38.60;;;;;;;15.83;100.00;99843.48;1726922;80;21267;-88
2021/09/02 04:15:46;;;;;;;37.70;30.40;;;;;;;15.75;100.00;99844.34;1764090;80;21046;-79
2021/09/02 04:18:13;;;;;;;33.13;27.90;;;;;;;15.68;100.00;99840.25;1751407;80;21423;-84
2021/09/02 04:20:40;;;;;;;31.77;27.32;;;;;;;15.64;100.00;99836.34;1739183;80;21644;-80
2021/09/02 04:23:07;;;;;;;28.83;25.72;;;;;;;15.63;100.00;99834.69;1752586;80;21138;-83
2021/09/02 04:25:34;;;;;;;25.88;23.18;;;;;;;15.62;100.00;99820.73;1721060;81;21131;-81
2021/09/02 04:28:01;;;;;;;33.28;25.55;;;;;;;15.64;100.00;99821.06;1740585;80;21529;-85
2021/09/02 04:30:28;;;;;;;30.72;24.85;;;;;;;15.65;100.00;99819.61;1712788;81;21578;-81
2021/09/02 04:32:55;;;;;;;26.20;23.47;;;;;;;15.68;100.00;99819.77;1720524;81;21082;-83
2021/09/02 04:35:22;;;;;;;27.80;23.62;;;;;;;15.68;100.00;99824.50;1733659;80;21049;-85
2021/09/02 04:37:49;;;;;;;28.65;25.55;;;;;;;15.68;100.00;99819.25;1685365;83;21089;-82
2021/09/02 04:40:16;;;;;;;27.15;24.25;;;;;;;15.70;100.00;99826.98;1678955;82;21078;-80
2021/09/02 04:42:44;;;;;;;33.35;29.80;;;;;;;15.70;100.00;99820.42;1644258;85;21034;-80
2021/09/02 04:45:12;;;;;;;37.40;33.38;;;;;;;15.70;100.00;99823.84;1693711;83;21764;-84
2021/09/02 04:47:39;;;;;;;39.30;35.23;;;;;;;15.70;100.00;99828.30;1644015;86;21140;-82
2021/09/02 04:50:09;;;;;;;39.75;35.68;;;;;;;15.73;100.00;99832.71;1679247;82;21917;-83
2021/09/02 04:52:36;;;;;;;31.95;28.70;;;;;;;15.78;100.00;99835.64;1677439;83;20953;-80
2021/09/02 04:55:05;;;;;;;28.05;25.02;;;;;;;15.83;100.00;99835.16;1693141;82;21030;-79
2021/09/02 04:57:32;;;;;;;25.60;22.90;;;;;;;15.86;100.00;99832.69;1683350;83;21152;-78
2021/09/02 04:59:59;;;;;;;26.37;23.75;;;;;;;15.85;100.00;99831.89;1667189;83;21062;-79
2021/09/02 05:02:26;;;;;;;27.02;24.07;;;;;;;15.87;100.00;99833.02;1658545;84;21547;-82
2021/09/02 05:04:54;;;;;;;24.55;21.95;;;;;;;15.88;100.00;99825.47;1686999;82;21205;-81
2021/09/02 05:07:21;;;;;;;26.02;23.27;;;;;;;15.91;100.00;99826.43;1662598;83;21639;-82
2021/09/02 05:09:48;;;;;;;25.10;22.55;;;;;;;15.94;100.00;99824.79;1697156;82;21097;-81
2021/09/02 05:12:17;;;;;;;24.52;22.10;;;;;;;15.99;100.00;99817.21;1666383;84;21513;-81
2021/09/02 05:14:45;;;;;;;25.90;22.35;;;;;;;16.04;100.00;99812.77;1678061;83;21063;-81
2021/09/02 05:17:14;;;;;;;24.72;22.13;;;;;;;16.07;100.00;99809.30;1673804;83;21035;-79
2021/09/02 05:19:41;;;;;;;30.35;25.57;;;;;;;16.08;100.00;99804.88;1679049;83;21241;-84
2021/09/02 05:22:08;;;;;;;28.10;24.40;;;;;;;16.07;100.00;99798.80;1649453;85;21169;-83
2021/09/02 05:24:35;;;;;;;25.57;22.95;;;;;;;16.07;100.00;99802.73;1660339;84;21110;-80
2021/09/02 05:27:02;;;;;;;25.88;23.22;;;;;;;16.08;100.00;99802.26;1661986;83;21131;-84
2021/09/02 05:29:29;;;;;;;25.12;22.52;;;;;;;16.12;100.00;99802.22;1698290;82;21152;-85
2021/09/02 05:31:57;;;;;;;23.85;21.45;;;;;;;16.19;100.00;99794.48;1676930;83;21401;-78
2021/09/02 05:34:24;;;;;;;25.20;22.65;;;;;;;16.24;100.00;99796.09;1655391;84;21090;-81
2021/09/02 05:36:51;;;;;;;22.62;20.48;;;;;;;16.26;100.00;99790.17;1703177;81;21942;-85
2021/09/02 05:39:18;;;;;;;22.67;20.37;;;;;;;16.25;100.00;99784.59;1718479;81;22364;-84
2021/09/02 05:41:48;;;;;;;21.62;19.48;;;;;;;16.25;100.00;99783.28;1721749;81;21045;-80
2021/09/02 05:44:18;;;;;;;21.55;19.35;;;;;;;16.30;100.00;99788.86;1655730;83;21341;-84
2021/09/02 05:46:49;;;;;;;21.25;19.27;;;;;;;16.30;100.00;99787.55;1649163;83;21197;-85
2021/09/02 05:49:16;;;;;;;20.62;18.65;;;;;;;16.35;100.00;99790.45;1742383;81;21009;-82
2021/09/02 05:51:45;;;;;;;19.27;17.35;;;;;;;16.45;100.00;99797.30;1748746;80;20943;-79
2021/09/02 05:54:16;;;;;;;18.77;16.97;;;;;;;16.51;100.00;99793.47;1717738;82;21066;-83
2021/09/02 05:56:41;;;;;;;18.55;16.85;;;;;;;16.56;100.00;99792.95;1716088;80;21061;-82
2021/09/02 05:59:07;;;;;;;17.75;16.12;;;;;;;16.59;100.00;99792.61;1733527;80;21064;-82
2021/09/02 06:01:34;;;;;;;18.98;17.17;;;;;;;16.59;100.00;99787.83;1728188;81;21003;-86
2021/09/02 06:04:01;;;;;;;17.48;15.78;;;;;;;16.60;100.00;99783.73;1682922;83;21114;-81
2021/09/02 06:06:29;;;;;;;18.05;16.32;;;;;;;16.66;100.00;99792.23;1712439;81;21091;-79
2021/09/02 06:08:58;;;;;;;17.75;16.05;;;;;;;16.75;100.00;99792.97;1720671;81;21114;-80
2021/09/02 06:11:25;;;;;;;18.12;16.32;;;;;;;16.81;100.00;99794.09;1711191;81;21014;-81
2021/09/02 06:13:51;;;;;;;17.60;15.28;;;;;;;16.86;100.00;99791.77;1694062;82;21101;-80
2021/09/02 06:16:19;;;;;;;17.20;15.50;;;;;;;16.91;100.00;99790.73;1720049;80;20994;-80
2021/09/02 06:18:48;;;;;;;18.20;16.30;;;;;;;16.94;100.00;99790.89;1704416;81;20971;-85
2021/09/02 06:21:15;;;;;;;16.52;14.95;;;;;;;16.99;100.00;99788.54;1732390;81;21094;-84
2021/09/02 06:23:42;;;;;;;17.17;15.45;;;;;;;17.05;100.00;99793.12;1701753;81;21044;-80
2021/09/02 06:26:09;;;;;;;17.40;15.63;;;;;;;17.11;100.00;99792.39;1692198;82;21020;-87
2021/09/02 06:28:36;;;;;;;16.95;15.40;;;;;;;17.18;100.00;99788.05;1664581;82;21198;-80
2021/09/02 06:31:04;;;;;;;17.50;15.80;;;;;;;17.25;100.00;99784.70;1702797;80;21091;-81
2021/09/02 06:33:30;;;;;;;16.15;14.68;;;;;;;17.27;100.00;99781.40;1694886;82;21051;-82
2021/09/02 06:35:57;;;;;;;16.25;14.75;;;;;;;17.28;100.00;99785.16;1705146;81;21545;-83
2021/09/02 06:38:24;;;;;;;16.17;14.65;;;;;;;17.26;100.00;99780.59;1740666;80;21161;-83
2021/09/02 06:40:51;;;;;;;16.55;14.98;;;;;;;17.27;100.00;99780.89;1770115;80;21221;-83
2021/09/02 06:43:18;;;;;;;17.98;16.07;;;;;;;17.24;100.00;99787.84;1700993;82;21086;-82
2021/09/02 06:45:45;;;;;;;16.75;15.13;;;;;;;17.24;100.00;99787.84;1677351;83;21062;-84
2021/09/02 06:48:13;;;;;;;15.50;14.10;;;;;;;17.25;100.00;99793.91;1683581;83;21034;-83
2021/09/02 06:50:41;;;;;;;15.88;14.45;;;;;;;17.24;100.00;99797.05;1695512;82;21033;-84
2021/09/02 06:53:08;;;;;;;15.63;14.23;;;;;;;17.25;100.00;99801.80;1692231;83;21095;-85
2021/09/02 06:55:35;;;;;;;15.93;14.43;;;;;;;17.26;100.00;99792.91;1684431;83;21717;-81
2021/09/02 06:58:02;;;;;;;15.83;14.30;;;;;;;17.25;100.00;99796.05;1672017;85;21718;-83
2021/09/02 07:00:29;;;;;;;15.90;14.40;;;;;;;17.29;100.00;99801.27;1690329;83;21123;-83
2021/09/02 07:02:57;;;;;;;15.25;13.95;;;;;;;17.33;100.00;99806.50;1668731;84;21058;-83
2021/09/02 07:05:24;;;;;;;15.78;14.28;;;;;;;17.39;100.00;99812.03;1678561;84;22410;-81
2021/09/02 07:07:53;;;;;;;14.58;13.10;;;;;;;17.44;100.00;99806.56;1662256;85;21214;-81
2021/09/02 07:10:20;;;;;;;15.70;14.30;;;;;;;17.51;100.00;99811.89;1663763;83;21043;-82
2021/09/02 07:12:47;;;;;;;14.03;12.80;;;;;;;17.57;100.00;99808.56;1642272;84;21156;-81
2021/09/02 07:15:14;;;;;;;15.83;14.33;;;;;;;17.63;100.00;99805.69;1720334;82;21635;-81
2021/09/02 07:17:42;;;;;;;15.10;13.68;;;;;;;17.70;100.00;99808.42;1725369;82;21488;-80
2021/09/02 07:20:12;;;;;;;13.93;12.73;;;;;;;17.73;100.00;99802.80;1718305;82;21233;-82
2021/09/02 07:22:39;;;;;;;13.60;12.40;;;;;;;17.78;100.00;99804.38;1706125;83;21053;-80
2021/09/02 07:25:10;;;;;;;13.40;12.10;;;;;;;17.81;100.00;99806.66;1666323;83;21069;-84
2021/09/02 07:27:36;;;;;;;13.48;12.15;;;;;;;17.81;100.00;99804.83;1674446;83;21074;-86
2021/09/02 07:30:05;;;;;;;12.60;11.50;;;;;;;17.83;100.00;99803.32;1664564;84;21173;-79
2021/09/02 07:32:33;;;;;;;13.85;12.55;;;;;;;17.84;100.00;99802.33;1651127;85;21041;-86
2021/09/02 07:35:00;;;;;;;12.33;11.18;;;;;;;17.83;100.00;99799.37;1652821;85;21520;-85
2021/09/02 07:37:26;;;;;;;12.60;11.43;;;;;;;17.82;100.00;99799.88;1690138;83;21007;-81
2021/09/02 07:39:55;;;;;;;13.20;11.88;;;;;;;17.84;100.00;99802.33;1663317;85;21073;-81
2021/09/02 07:42:22;;;;;;;13.13;11.65;;;;;;;17.86;100.00;99804.28;1683847;83;21162;-80
2021/09/02 07:44:48;;;;;;;12.95;11.75;;;;;;;17.90;100.00;99799.47;1666913;84;21128;-81
2021/09/02 07:47:15;;;;;;;12.23;11.12;;;;;;;17.92;100.00;99804.86;1674661;84;21515;-84
2021/09/02 07:49:42;;;;;;;12.07;10.98;;;;;;;17.94;100.00;99798.92;1652268;85;21620;-81
2021/09/02 07:52:09;;;;;;;12.85;11.55;;;;;;;17.96;100.00;99794.32;1685763;82;21097;-81
2021/09/02 07:54:37;;;;;;;11.50;10.48;;;;;;;18.00;100.00;99797.89;1710811;82;21993;-81
2021/09/02 07:57:04;;;;;;;11.10;9.73;;;;;;;18.02;100.00;99790.63;1691991;82;20971;-87
2021/09/02 07:59:31;;;;;;;11.10;10.10;;;;;;;18.02;100.00;99784.88;1692521;83;21058;-83
2021/09/02 08:01:58;;;;;;;11.73;10.63;;;;;;;18.02;100.00;99784.04;1717105;82;21105;-81
2021/09/02 08:04:25;;;;;;;10.88;9.98;;;;;;;18.02;100.00;99777.45;1671106;82;21105;-82
2021/09/02 08:06:52;;;;;;;11.40;10.38;;;;;;;18.04;100.00;99775.46;1691530;83;21147;-86
2021/09/02 08:09:19;;;;;;;11.65;10.45;;;;;;;18.04;100.00;99772.31;1701385;82;21564;-79
2021/09/02 08:11:47;;;;;;;11.45;10.45;;;;;;;18.06;100.00;99770.83;1710975;82;21688;-82
2021/09/02 08:14:16;;;;;;;11.33;10.40;;;;;;;18.05;100.00;99774.47;1666807;85;21567;-84
2021/09/02 08:16:44;;;;;;;11.08;10.15;;;;;;;18.04;100.00;99772.31;1647238;84;21088;-82
2021/09/02 08:19:13;;;;;;;11.90;10.78;;;;;;;18.04;100.00;99767.56;1644047;83;21177;-80
2021/09/02 08:21:40;;;;;;;11.10;10.10;;;;;;;18.02;100.00;99769.55;1664671;85;21822;-83
2021/09/02 08:24:08;;;;;;;14.40;11.70;;;;;;;17.97;100.00;99769.62;1655039;85;21090;-82
2021/09/02 08:26:36;;;;;;;14.10;11.38;;;;;;;17.87;100.00;99775.64;1655639;85;21099;-80
2021/09/02 08:29:03;;;;;;;14.23;11.15;;;;;;;17.68;100.00;99773.55;1657078;83;22057;-79
2021/09/02 08:31:30;;;;;;;16.90;12.25;;;;;;;17.46;100.00;99774.79;1647594;85;22224;-80
2021/09/02 08:33:59;;;;;;;15.10;10.93;;;;;;;17.27;100.00;99778.25;1682831;83;21102;-82
2021/09/02 08:36:26;;;;;;;14.05;11.25;;;;;;;17.09;100.00;99784.37;1671966;84;21054;-81
2021/09/02 08:38:54;;;;;;;13.32;12.05;;;;;;;16.95;100.00;99782.02;1655308;84;21113;-79
2021/09/02 08:41:21;;;;;;;13.20;11.68;;;;;;;16.85;100.00;99782.23;1665048;84;21109;-80
2021/09/02 08:43:48;;;;;;;13.03;11.50;;;;;;;16.80;100.00;99782.77;1743270;80;21148;-80
2021/09/02 08:46:16;;;;;;;14.87;11.12;;;;;;;16.79;100.00;99790.80;1710969;81;21112;-79
2021/09/02 08:48:48;;;;;;;12.68;11.40;;;;;;;16.78;100.00;99791.31;1709860;81;21674;-84
2021/09/02 08:51:16;;;;;;;12.15;10.53;;;;;;;16.77;100.00;99787.56;1677135;83;21114;-83
2021/09/02 08:53:44;;;;;;;13.15;11.08;;;;;;;16.72;100.00;99784.95;1673017;83;21584;-79
2021/09/02 08:56:12;;;;;;;11.38;10.25;;;;;;;16.70;100.00;99781.67;1714304;81;21141;-80
2021/09/02 08:58:39;;;;;;;11.25;10.03;;;;;;;16.69;100.00;99784.00;1674180;84;21067;-82
2021/09/02 09:01:09;;;;;;;12.25;9.95;;;;;;;16.71;100.00;99780.68;1697324;82;21059;-82
2021/09/02 09:03:38;;;;;;;11.50;10.40;;;;;;;16.74;100.00;99774.76;1679805;84;21197;-82
2021/09/02 09:06:09;;;;;;;10.88;9.85;;;;;;;16.77;100.00;99777.05;1652700;85;21091;-81
2021/09/02 09:08:45;;;;;;;12.53;10.32;;;;;;;16.79;100.00;99771.92;1662160;83;21180;-82
2021/09/02 09:11:17;;;;;;;10.45;9.55;;;;;;;16.82;100.00;99772.90;1726376;82;20932;-79
2021/09/02 09:13:45;;;;;;;10.30;9.30;;;;;;;16.87;100.00;99770.55;1683218;82;21126;-82
2021/09/02 09:16:13;;;;;;;10.10;9.20;;;;;;;16.91;100.00;99767.06;1713661;80;21160;-82
2021/09/02 09:18:45;;;;;;;10.32;9.23;;;;;;;16.97;100.00;99766.38;1755184;80;21028;-81
2021/09/02 09:21:16;;;;;;;9.63;8.45;;;;;;;17.05;100.00;99762.03;1721548;80;22472;-83
2021/09/02 09:24:01;;;;;;;9.63;8.65;;;;;;;17.14;100.00;99746.50;1741704;80;21589;-82
2021/09/02 09:26:31;;;;;;;9.25;8.28;;;;;;;17.23;100.00;99745.91;1735801;81;21959;-83
2021/09/02 09:29:03;;;;;;;9.18;8.38;;;;;;;17.38;100.00;99748.08;1671799;82;21822;-84
2021/09/02 09:31:34;;;;;;;9.65;8.83;;;;;;;17.53;100.00;99749.37;1701950;82;21109;-83
2021/09/02 09:34:07;;;;;;;9.68;8.75;;;;;;;17.69;100.00;99750.18;1668206;83;21141;-85
2021/09/02 09:36:38;;;;;;;9.80;8.85;;;;;;;17.84;100.00;99743.08;1678550;83;21168;-83
2021/09/02 09:39:09;;;;;;;;;;;;;;;18.00;100.00;99745.20;1746342;80;21146;-83
2021/09/02 09:41:40;;;;;;;8.90;8.05;;;;;;;18.10;100.00;99750.52;1680931;81;20172;-83
2021/09/02 09:44:28;;;;;;;12.45;11.35;;;;;;;18.15;100.00;99749.94;1736599;80;21580;-82
2021/09/02 09:47:14;;;;;;;30.12;27.55;;;;;;;18.21;100.00;99743.95;1710636;81;21117;-84
2021/09/02 09:49:52;;;;;;;15.70;14.33;;;;;;;18.32;100.00;99740.48;1737016;81;21069;-85
2021/09/02 09:52:27;;;;;;;10.98;10.08;;;;;;;18.39;100.00;99742.19;1705220;81;21626;-84
2021/09/02 09:55:12;;;;;;;8.43;7.58;;;;;;;18.49;100.00;99749.78;1715130;80;21731;-82
2021/09/02 09:57:41;;;;;;;8.73;8.00;;;;;;;18.37;100.00;99747.34;1725638;81;21522;-84
2021/09/02 10:00:17;;;;;;;11.10;9.33;;;;;;;18.12;100.00;99752.45;1699942;80;21031;-85
2021/09/02 10:02:51;;;;;;;11.10;9.90;;;;;;;17.86;100.00;99757.39;1733583;80;21041;-81
2021/09/02 10:05:22;;;;;;;11.75;10.53;;;;;;;17.58;100.00;99770.72;1743310;80;21049;-83
2021/09/02 10:07:52;;;;;;;13.78;12.47;;;;;;;17.34;100.00;99787.09;1699946;81;21037;-81
2021/09/02 10:10:18;;;;;;;18.82;16.62;;;;;;;17.14;100.00;99784.64;1754069;80;21038;-82
2021/09/02 10:12:48;;;;;;;13.98;12.50;;;;;;;17.00;100.00;99790.18;1737642;80;21130;-83
2021/09/02 10:15:19;;;;;;;14.45;13.15;;;;;;;16.87;100.00;99790.75;1749132;80;21042;-82
2021/09/02 10:17:48;;;;;;;16.48;14.70;;;;;;;16.79;100.00;99790.80;1740869;80;20946;-81
2021/09/02 10:20:32;;;;;;;16.30;14.38;;;;;;;16.67;100.00;99799.12;1731953;82;21081;-79
2021/09/02 10:23:02;;;;;;;17.12;15.13;;;;;;;16.49;100.00;99804.67;1723313;81;21049;-83
2021/09/02 10:25:37;;;;;;;17.20;15.18;;;;;;;16.30;100.00;99808.56;1716070;81;21083;-82
2021/09/02 10:28:24;;;;;;;16.95;14.80;;;;;;;16.18;100.00;99812.06;1713785;82;21017;-82
2021/09/02 10:30:56;;;;;;;18.07;16.23;;;;;;;16.12;100.00;99810.10;1711866;80;21042;-83
2021/09/02 10:33:42;;;;;;;;;;;;;;;16.11;100.00;99811.59;1742535;80;21082;-83
2021/09/02 10:36:17;;;;;;;19.70;16.02;;;;;;;16.12;100.00;99814.55;1742645;80;20175;-85
2021/09/02 10:38:54;;;;;;;20.85;18.25;;;;;;;16.13;100.00;99816.19;1752780;80;21110;-82
2021/09/02 10:41:44;;;;;;;17.30;15.60;;;;;;;16.14;100.00;99819.14;1762547;80;21120;-85
2021/09/02 10:44:12;;;;;;;18.02;16.20;;;;;;;16.15;100.00;99818.96;1683373;82;21109;-83
2021/09/02 10:46:47;;;;;;;18.00;16.30;;;;;;;16.21;100.00;99824.03;1727029;81;21054;-83
2021/09/02 10:49:31;;;;;;;16.65;15.05;;;;;;;16.27;100.00;99819.40;1711179;82;20997;-85
2021/09/02 10:52:05;;;;;;;16.62;14.90;;;;;;;16.34;100.00;99819.03;1679016;80;21291;-82
2021/09/02 10:54:39;;;;;;;22.35;20.05;;;;;;;16.42;100.00;99822.12;1730742;80;21085;-83
2021/09/02 10:57:13;;;;;;;17.90;16.12;;;;;;;16.46;100.00;99815.52;1757719;80;21093;-85
2021/09/02 10:59:54;;;;;;;18.12;16.48;;;;;;;16.50;100.00;99814.19;1741388;80;20998;-82
2021/09/02 11:02:29;;;;;;;17.23;15.30;;;;;;;16.56;100.00;99816.12;1712168;81;21967;-82
2021/09/02 11:05:07;;;;;;;20.00;15.43;;;;;;;16.62;100.00;99811.98;1699406;83;21108;-83
2021/09/02 11:07:48;;;;;;;17.48;15.35;;;;;;;16.69;100.00;99810.77;1707559;81;21549;-84
2021/09/02 11:10:24;;;;;;;16.05;14.55;;;;;;;16.75;100.00;99810.06;1717564;82;21054;-85
2021/09/02 11:13:01;;;;;;;17.05;15.25;;;;;;;16.79;100.00;99807.41;1678782;83;21224;-86
2021/09/02 11:15:31;;;;;;;16.20;14.60;;;;;;;16.83;100.00;99803.42;1699935;82;21216;-83
2021/09/02 11:18:00;;;;;;;16.00;14.43;;;;;;;16.91;100.00;99793.36;1697206;83;21232;-86